sensor_id;sensor_type;location;lat;lon;timestamp;P1;durP1;ratioP1;P2;durP2;ratioP2
43620;SDS011;29213;50.770;7.298;2023-07-13T00:00:46;4.30;;;1.13;;
43620;SDS011;29213;50.770;7.298;2023-07-13T00:03:12;3.83;;;1.20;;
43620;SDS011;29213;50.770;7.298;2023-07-13T00:05:38;2.33;;;1.02;;
43620;SDS011;29213;50.770;7.298;2023-07-13T00:08:04;2.78;;;1.00;;
43620;SDS011;29213;50.770;7.298;2023-07-13T00:10:30;3.13;;;1.10;;
43620;SDS011;29213;50.770;7.298;2023-07-13T00:12:56;3.35;;;1.02;;
43620;SDS011;29213;50.770;7.298;2023-07-13T00:15:23;2.83;;;1.02;;
43620;SDS011;29213;50.770;7.298;2023-07-13T00:17:53;3.63;;;1.17;;
43620;SDS011;29213;50.770;7.298;2023-07-13T00:20:20;4.82;;;1.30;;
43620;SDS011;29213;50.770;7.298;2023-07-13T00:22:47;3.45;;;1.20;;
43620;SDS011;29213;50.770;7.298;2023-07-13T00:25:14;3.25;;;1.02;;
43620;SDS011;29213;50.770;7.298;2023-07-13T00:27:39;4.10;;;1.20;;
43620;SDS011;29213;50.770;7.298;2023-07-13T00:30:05;3.45;;;1.20;;
43620;SDS011;29213;50.770;7.298;2023-07-13T00:32:31;3.72;;;1.25;;
43620;SDS011;29213;50.770;7.298;2023-07-13T00:34:57;4.93;;;1.52;;
43620;SDS011;29213;50.770;7.298;2023-07-13T00:37:23;3.97;;;1.00;;
43620;SDS011;29213;50.770;7.298;2023-07-13T00:39:48;5.63;;;1.25;;
43620;SDS011;29213;50.770;7.298;2023-07-13T00:42:14;4.55;;;1.20;;
43620;SDS011;29213;50.770;7.298;2023-07-13T00:44:40;3.15;;;1.15;;
43620;SDS011;29213;50.770;7.298;2023-07-13T00:47:05;4.82;;;1.13;;
43620;SDS011;29213;50.770;7.298;2023-07-13T00:49:32;3.58;;;1.15;;
43620;SDS011;29213;50.770;7.298;2023-07-13T00:52:04;2.72;;;1.10;;
43620;SDS011;29213;50.770;7.298;2023-07-13T00:54:34;3.55;;;0.90;;
43620;SDS011;29213;50.770;7.298;2023-07-13T00:57:04;2.78;;;1.13;;
43620;SDS011;29213;50.770;7.298;2023-07-13T00:59:36;3.30;;;1.20;;
43620;SDS011;29213;50.770;7.298;2023-07-13T01:02:06;4.45;;;1.00;;
43620;SDS011;29213;50.770;7.298;2023-07-13T01:04:32;3.13;;;1.25;;
43620;SDS011;29213;50.770;7.298;2023-07-13T01:06:57;3.95;;;1.23;;
43620;SDS011;29213;50.770;7.298;2023-07-13T01:09:23;3.38;;;1.10;;
43620;SDS011;29213;50.770;7.298;2023-07-13T01:11:48;3.85;;;1.13;;
43620;SDS011;29213;50.770;7.298;2023-07-13T01:14:14;3.47;;;1.10;;
43620;SDS011;29213;50.770;7.298;2023-07-13T01:16:42;3.05;;;1.15;;
43620;SDS011;29213;50.770;7.298;2023-07-13T01:19:26;3.35;;;1.20;;
43620;SDS011;29213;50.770;7.298;2023-07-13T01:22:03;3.88;;;1.10;;
43620;SDS011;29213;50.770;7.298;2023-07-13T01:24:34;3.75;;;1.30;;
43620;SDS011;29213;50.770;7.298;2023-07-13T01:27:01;2.70;;;1.00;;
43620;SDS011;29213;50.770;7.298;2023-07-13T01:29:26;3.88;;;1.30;;
43620;SDS011;29213;50.770;7.298;2023-07-13T01:31:52;3.00;;;1.10;;
43620;SDS011;29213;50.770;7.298;2023-07-13T01:34:17;3.40;;;1.00;;
43620;SDS011;29213;50.770;7.298;2023-07-13T01:36:43;3.35;;;1.13;;
43620;SDS011;29213;50.770;7.298;2023-07-13T01:39:08;3.30;;;1.20;;
43620;SDS011;29213;50.770;7.298;2023-07-13T01:41:33;3.03;;;1.08;;
43620;SDS011;29213;50.770;7.298;2023-07-13T01:43:59;3.28;;;1.25;;
43620;SDS011;29213;50.770;7.298;2023-07-13T01:46:24;2.60;;;1.08;;
43620;SDS011;29213;50.770;7.298;2023-07-13T01:48:50;4.32;;;1.20;;
43620;SDS011;29213;50.770;7.298;2023-07-13T01:51:18;4.78;;;1.40;;
43620;SDS011;29213;50.770;7.298;2023-07-13T01:53:44;3.30;;;1.30;;
43620;SDS011;29213;50.770;7.298;2023-07-13T01:56:10;3.40;;;1.30;;
43620;SDS011;29213;50.770;7.298;2023-07-13T01:58:35;4.80;;;1.45;;
43620;SDS011;29213;50.770;7.298;2023-07-13T02:01:01;3.25;;;1.20;;
43620;SDS011;29213;50.770;7.298;2023-07-13T02:03:26;2.72;;;1.00;;
43620;SDS011;29213;50.770;7.298;2023-07-13T02:05:51;3.13;;;1.20;;
43620;SDS011;29213;50.770;7.298;2023-07-13T02:08:17;3.08;;;1.10;;
43620;SDS011;29213;50.770;7.298;2023-07-13T02:10:42;4.10;;;1.27;;
43620;SDS011;29213;50.770;7.298;2023-07-13T02:13:08;4.55;;;1.40;;
43620;SDS011;29213;50.770;7.298;2023-07-13T02:15:33;3.42;;;1.33;;
43620;SDS011;29213;50.770;7.298;2023-07-13T02:17:59;3.53;;;1.33;;
43620;SDS011;29213;50.770;7.298;2023-07-13T02:20:25;3.30;;;1.10;;
43620;SDS011;29213;50.770;7.298;2023-07-13T02:22:51;2.78;;;1.00;;
43620;SDS011;29213;50.770;7.298;2023-07-13T02:25:17;4.32;;;1.30;;
43620;SDS011;29213;50.770;7.298;2023-07-13T02:27:42;5.88;;;1.48;;
43620;SDS011;29213;50.770;7.298;2023-07-13T02:30:08;4.25;;;1.35;;
43620;SDS011;29213;50.770;7.298;2023-07-13T02:32:37;3.47;;;1.42;;
43620;SDS011;29213;50.770;7.298;2023-07-13T02:35:02;4.63;;;1.20;;
43620;SDS011;29213;50.770;7.298;2023-07-13T02:37:28;3.65;;;1.30;;
43620;SDS011;29213;50.770;7.298;2023-07-13T02:39:55;4.22;;;1.23;;
43620;SDS011;29213;50.770;7.298;2023-07-13T02:42:20;3.15;;;1.20;;
43620;SDS011;29213;50.770;7.298;2023-07-13T02:44:45;2.85;;;1.10;;
43620;SDS011;29213;50.770;7.298;2023-07-13T02:47:11;3.65;;;1.05;;
43620;SDS011;29213;50.770;7.298;2023-07-13T02:49:38;3.28;;;1.20;;
43620;SDS011;29213;50.770;7.298;2023-07-13T02:52:03;2.75;;;1.15;;
43620;SDS011;29213;50.770;7.298;2023-07-13T02:54:29;3.45;;;1.05;;
43620;SDS011;29213;50.770;7.298;2023-07-13T02:56:54;3.75;;;1.10;;
43620;SDS011;29213;50.770;7.298;2023-07-13T02:59:20;2.92;;;1.10;;
43620;SDS011;29213;50.770;7.298;2023-07-13T03:01:46;3.20;;;1.00;;
43620;SDS011;29213;50.770;7.298;2023-07-13T03:04:11;5.22;;;1.40;;
43620;SDS011;29213;50.770;7.298;2023-07-13T03:06:37;3.38;;;1.17;;
43620;SDS011;29213;50.770;7.298;2023-07-13T03:09:02;2.75;;;1.13;;
43620;SDS011;29213;50.770;7.298;2023-07-13T03:11:29;3.35;;;1.10;;
43620;SDS011;29213;50.770;7.298;2023-07-13T03:13:54;3.28;;;1.20;;
43620;SDS011;29213;50.770;7.298;2023-07-13T03:16:20;3.00;;;1.05;;
43620;SDS011;29213;50.770;7.298;2023-07-13T03:18:46;5.18;;;1.20;;
43620;SDS011;29213;50.770;7.298;2023-07-13T03:21:13;3.45;;;1.30;;
43620;SDS011;29213;50.770;7.298;2023-07-13T03:23:38;4.90;;;1.27;;
43620;SDS011;29213;50.770;7.298;2023-07-13T03:28:50;3.25;;;1.20;;
43620;SDS011;29213;50.770;7.298;2023-07-13T03:31:18;2.78;;;1.00;;
43620;SDS011;29213;50.770;7.298;2023-07-13T03:33:45;2.78;;;1.02;;
43620;SDS011;29213;50.770;7.298;2023-07-13T03:36:15;3.08;;;1.00;;
43620;SDS011;29213;50.770;7.298;2023-07-13T03:38:49;2.10;;;0.90;;
43620;SDS011;29213;50.770;7.298;2023-07-13T03:41:16;3.92;;;1.40;;
43620;SDS011;29213;50.770;7.298;2023-07-13T03:43:42;5.00;;;1.50;;
43620;SDS011;29213;50.770;7.298;2023-07-13T03:46:08;4.15;;;1.42;;
43620;SDS011;29213;50.770;7.298;2023-07-13T03:48:34;4.50;;;1.38;;
43620;SDS011;29213;50.770;7.298;2023-07-13T03:50:59;4.88;;;1.65;;
43620;SDS011;29213;50.770;7.298;2023-07-13T03:53:25;7.07;;;1.50;;
43620;SDS011;29213;50.770;7.298;2023-07-13T03:55:51;3.78;;;1.40;;
43620;SDS011;29213;50.770;7.298;2023-07-13T03:58:22;3.75;;;1.30;;
43620;SDS011;29213;50.770;7.298;2023-07-13T04:01:09;3.50;;;1.40;;
43620;SDS011;29213;50.770;7.298;2023-07-13T04:03:36;4.30;;;1.52;;
43620;SDS011;29213;50.770;7.298;2023-07-13T04:06:02;3.83;;;1.35;;
43620;SDS011;29213;50.770;7.298;2023-07-13T04:08:32;3.78;;;1.20;;
43620;SDS011;29213;50.770;7.298;2023-07-13T04:11:00;4.13;;;1.40;;
43620;SDS011;29213;50.770;7.298;2023-07-13T04:13:27;4.85;;;1.40;;
43620;SDS011;29213;50.770;7.298;2023-07-13T04:15:53;3.90;;;1.10;;
43620;SDS011;29213;50.770;7.298;2023-07-13T04:18:19;4.00;;;1.60;;
43620;SDS011;29213;50.770;7.298;2023-07-13T04:20:46;3.45;;;1.33;;
43620;SDS011;29213;50.770;7.298;2023-07-13T04:23:12;3.92;;;1.23;;
43620;SDS011;29213;50.770;7.298;2023-07-13T04:25:37;4.38;;;1.20;;
43620;SDS011;29213;50.770;7.298;2023-07-13T04:28:03;3.13;;;1.20;;
43620;SDS011;29213;50.770;7.298;2023-07-13T04:30:29;3.28;;;1.40;;
43620;SDS011;29213;50.770;7.298;2023-07-13T04:32:55;3.75;;;1.50;;
43620;SDS011;29213;50.770;7.298;2023-07-13T04:35:20;2.63;;;1.30;;
43620;SDS011;29213;50.770;7.298;2023-07-13T04:37:47;3.17;;;1.10;;
43620;SDS011;29213;50.770;7.298;2023-07-13T04:40:15;3.78;;;1.23;;
43620;SDS011;29213;50.770;7.298;2023-07-13T04:42:44;2.88;;;1.23;;
43620;SDS011;29213;50.770;7.298;2023-07-13T04:45:11;2.78;;;1.10;;
43620;SDS011;29213;50.770;7.298;2023-07-13T04:47:38;2.38;;;1.05;;
43620;SDS011;29213;50.770;7.298;2023-07-13T04:50:03;3.10;;;1.30;;
43620;SDS011;29213;50.770;7.298;2023-07-13T04:52:30;4.18;;;1.20;;
43620;SDS011;29213;50.770;7.298;2023-07-13T04:54:56;5.65;;;1.30;;
43620;SDS011;29213;50.770;7.298;2023-07-13T04:57:22;4.63;;;1.35;;
43620;SDS011;29213;50.770;7.298;2023-07-13T04:59:47;3.60;;;1.15;;
43620;SDS011;29213;50.770;7.298;2023-07-13T05:02:13;2.88;;;1.15;;
43620;SDS011;29213;50.770;7.298;2023-07-13T05:04:38;5.07;;;1.35;;
43620;SDS011;29213;50.770;7.298;2023-07-13T05:07:04;4.05;;;1.45;;
43620;SDS011;29213;50.770;7.298;2023-07-13T05:09:31;2.78;;;1.25;;
43620;SDS011;29213;50.770;7.298;2023-07-13T05:11:56;3.67;;;1.25;;
43620;SDS011;29213;50.770;7.298;2023-07-13T05:14:22;3.25;;;1.20;;
43620;SDS011;29213;50.770;7.298;2023-07-13T05:16:47;4.22;;;1.13;;
43620;SDS011;29213;50.770;7.298;2023-07-13T05:19:13;2.03;;;1.00;;
43620;SDS011;29213;50.770;7.298;2023-07-13T05:21:38;3.08;;;1.00;;
43620;SDS011;29213;50.770;7.298;2023-07-13T05:24:03;2.88;;;1.20;;
43620;SDS011;29213;50.770;7.298;2023-07-13T05:26:29;3.75;;;1.00;;
43620;SDS011;29213;50.770;7.298;2023-07-13T05:28:54;3.40;;;1.23;;
43620;SDS011;29213;50.770;7.298;2023-07-13T05:31:20;5.20;;;0.90;;
43620;SDS011;29213;50.770;7.298;2023-07-13T05:33:45;4.40;;;1.30;;
43620;SDS011;29213;50.770;7.298;2023-07-13T05:36:10;4.72;;;1.40;;
43620;SDS011;29213;50.770;7.298;2023-07-13T05:38:36;2.90;;;1.00;;
43620;SDS011;29213;50.770;7.298;2023-07-13T05:41:01;1.92;;;0.90;;
43620;SDS011;29213;50.770;7.298;2023-07-13T05:43:26;3.90;;;1.35;;
43620;SDS011;29213;50.770;7.298;2023-07-13T05:45:53;2.67;;;1.10;;
43620;SDS011;29213;50.770;7.298;2023-07-13T05:48:19;2.65;;;1.17;;
43620;SDS011;29213;50.770;7.298;2023-07-13T05:50:45;2.38;;;0.90;;
43620;SDS011;29213;50.770;7.298;2023-07-13T05:53:11;4.00;;;1.20;;
43620;SDS011;29213;50.770;7.298;2023-07-13T05:55:41;3.58;;;1.10;;
43620;SDS011;29213;50.770;7.298;2023-07-13T05:58:08;4.00;;;1.23;;
43620;SDS011;29213;50.770;7.298;2023-07-13T06:00:33;2.05;;;0.85;;
43620;SDS011;29213;50.770;7.298;2023-07-13T06:02:58;4.03;;;1.10;;
43620;SDS011;29213;50.770;7.298;2023-07-13T06:05:24;3.67;;;1.20;;
43620;SDS011;29213;50.770;7.298;2023-07-13T06:07:49;3.90;;;1.23;;
43620;SDS011;29213;50.770;7.298;2023-07-13T06:10:15;2.03;;;0.80;;
43620;SDS011;29213;50.770;7.298;2023-07-13T06:12:40;3.53;;;1.08;;
43620;SDS011;29213;50.770;7.298;2023-07-13T06:15:06;3.92;;;1.20;;
43620;SDS011;29213;50.770;7.298;2023-07-13T06:17:33;5.25;;;1.33;;
43620;SDS011;29213;50.770;7.298;2023-07-13T06:19:59;3.63;;;1.20;;
43620;SDS011;29213;50.770;7.298;2023-07-13T06:22:24;2.47;;;0.88;;
43620;SDS011;29213;50.770;7.298;2023-07-13T06:24:50;2.78;;;1.05;;
43620;SDS011;29213;50.770;7.298;2023-07-13T06:27:15;5.50;;;1.23;;
43620;SDS011;29213;50.770;7.298;2023-07-13T06:29:41;2.75;;;1.13;;
43620;SDS011;29213;50.770;7.298;2023-07-13T06:32:10;3.05;;;1.13;;
43620;SDS011;29213;50.770;7.298;2023-07-13T06:34:35;4.88;;;1.10;;
43620;SDS011;29213;50.770;7.298;2023-07-13T06:37:01;2.75;;;0.90;;
43620;SDS011;29213;50.770;7.298;2023-07-13T06:39:26;3.22;;;1.20;;
43620;SDS011;29213;50.770;7.298;2023-07-13T06:41:52;2.85;;;0.98;;
43620;SDS011;29213;50.770;7.298;2023-07-13T06:44:17;2.90;;;1.20;;
43620;SDS011;29213;50.770;7.298;2023-07-13T06:46:42;3.83;;;1.27;;
43620;SDS011;29213;50.770;7.298;2023-07-13T06:49:08;3.33;;;1.10;;
43620;SDS011;29213;50.770;7.298;2023-07-13T06:51:34;3.35;;;1.17;;
43620;SDS011;29213;50.770;7.298;2023-07-13T06:54:00;3.40;;;1.10;;
43620;SDS011;29213;50.770;7.298;2023-07-13T06:56:25;3.08;;;1.20;;
43620;SDS011;29213;50.770;7.298;2023-07-13T06:58:50;3.25;;;1.20;;
43620;SDS011;29213;50.770;7.298;2023-07-13T07:01:16;2.80;;;1.00;;
43620;SDS011;29213;50.770;7.298;2023-07-13T07:03:41;4.18;;;1.30;;
43620;SDS011;29213;50.770;7.298;2023-07-13T07:06:17;3.65;;;1.20;;
43620;SDS011;29213;50.770;7.298;2023-07-13T07:08:44;2.80;;;0.98;;
43620;SDS011;29213;50.770;7.298;2023-07-13T07:11:14;4.63;;;1.40;;
43620;SDS011;29213;50.770;7.298;2023-07-13T07:13:42;4.60;;;1.20;;
43620;SDS011;29213;50.770;7.298;2023-07-13T07:16:08;3.83;;;1.27;;
43620;SDS011;29213;50.770;7.298;2023-07-13T07:18:33;3.22;;;1.08;;
43620;SDS011;29213;50.770;7.298;2023-07-13T07:20:59;4.32;;;1.23;;
43620;SDS011;29213;50.770;7.298;2023-07-13T07:23:25;5.78;;;1.20;;
43620;SDS011;29213;50.770;7.298;2023-07-13T07:25:50;2.90;;;1.00;;
43620;SDS011;29213;50.770;7.298;2023-07-13T07:28:17;4.40;;;1.20;;
43620;SDS011;29213;50.770;7.298;2023-07-13T07:30:46;2.92;;;1.10;;
43620;SDS011;29213;50.770;7.298;2023-07-13T07:33:12;4.78;;;1.30;;
43620;SDS011;29213;50.770;7.298;2023-07-13T07:35:39;3.17;;;1.15;;
43620;SDS011;29213;50.770;7.298;2023-07-13T07:38:04;3.33;;;1.20;;
43620;SDS011;29213;50.770;7.298;2023-07-13T07:40:30;3.65;;;1.10;;
43620;SDS011;29213;50.770;7.298;2023-07-13T07:42:56;4.10;;;1.20;;
43620;SDS011;29213;50.770;7.298;2023-07-13T07:45:22;3.72;;;1.10;;
43620;SDS011;29213;50.770;7.298;2023-07-13T07:47:48;3.63;;;1.17;;
43620;SDS011;29213;50.770;7.298;2023-07-13T07:50:14;4.28;;;1.30;;
43620;SDS011;29213;50.770;7.298;2023-07-13T07:52:39;3.63;;;0.93;;
43620;SDS011;29213;50.770;7.298;2023-07-13T07:55:05;3.33;;;1.20;;
43620;SDS011;29213;50.770;7.298;2023-07-13T07:57:32;4.15;;;1.15;;
43620;SDS011;29213;50.770;7.298;2023-07-13T07:59:57;3.13;;;1.10;;
43620;SDS011;29213;50.770;7.298;2023-07-13T08:02:24;4.50;;;1.10;;
43620;SDS011;29213;50.770;7.298;2023-07-13T08:04:49;3.65;;;1.10;;
43620;SDS011;29213;50.770;7.298;2023-07-13T08:07:15;4.10;;;1.30;;
43620;SDS011;29213;50.770;7.298;2023-07-13T08:09:40;3.33;;;1.17;;
43620;SDS011;29213;50.770;7.298;2023-07-13T08:12:06;2.78;;;0.93;;
43620;SDS011;29213;50.770;7.298;2023-07-13T08:14:32;3.70;;;1.02;;
43620;SDS011;29213;50.770;7.298;2023-07-13T08:16:57;3.08;;;1.10;;
43620;SDS011;29213;50.770;7.298;2023-07-13T08:19:23;5.00;;;1.30;;
43620;SDS011;29213;50.770;7.298;2023-07-13T08:21:48;4.05;;;1.10;;
43620;SDS011;29213;50.770;7.298;2023-07-13T08:24:14;3.45;;;1.13;;
43620;SDS011;29213;50.770;7.298;2023-07-13T08:26:40;3.42;;;1.00;;
43620;SDS011;29213;50.770;7.298;2023-07-13T08:29:05;3.50;;;1.10;;
43620;SDS011;29213;50.770;7.298;2023-07-13T08:31:31;4.88;;;1.48;;
43620;SDS011;29213;50.770;7.298;2023-07-13T08:33:56;3.15;;;1.08;;
43620;SDS011;29213;50.770;7.298;2023-07-13T08:36:21;3.40;;;1.13;;
43620;SDS011;29213;50.770;7.298;2023-07-13T08:38:47;3.63;;;1.20;;
43620;SDS011;29213;50.770;7.298;2023-07-13T08:41:13;3.58;;;1.30;;
43620;SDS011;29213;50.770;7.298;2023-07-13T08:43:41;3.70;;;1.20;;
43620;SDS011;29213;50.770;7.298;2023-07-13T08:46:13;3.92;;;1.10;;
43620;SDS011;29213;50.770;7.298;2023-07-13T08:49:29;3.63;;;1.05;;
43620;SDS011;29213;50.770;7.298;2023-07-13T08:54:21;2.90;;;1.10;;
43620;SDS011;29213;50.770;7.298;2023-07-13T08:56:53;3.45;;;1.08;;
43620;SDS011;29213;50.770;7.298;2023-07-13T08:59:19;3.80;;;1.23;;
43620;SDS011;29213;50.770;7.298;2023-07-13T09:04:39;2.60;;;1.08;;
43620;SDS011;29213;50.770;7.298;2023-07-13T09:15:30;3.75;;;0.95;;
43620;SDS011;29213;50.770;7.298;2023-07-13T09:20:43;3.47;;;1.00;;
43620;SDS011;29213;50.770;7.298;2023-07-13T09:23:19;2.35;;;1.00;;
43620;SDS011;29213;50.770;7.298;2023-07-13T09:25:47;4.22;;;1.10;;
43620;SDS011;29213;50.770;7.298;2023-07-13T09:28:27;3.63;;;1.20;;
43620;SDS011;29213;50.770;7.298;2023-07-13T09:31:02;5.50;;;1.38;;
43620;SDS011;29213;50.770;7.298;2023-07-13T09:33:28;2.80;;;1.10;;
43620;SDS011;29213;50.770;7.298;2023-07-13T09:35:58;3.03;;;1.20;;
43620;SDS011;29213;50.770;7.298;2023-07-13T09:38:24;2.80;;;0.90;;
43620;SDS011;29213;50.770;7.298;2023-07-13T09:41:06;2.75;;;1.00;;
43620;SDS011;29213;50.770;7.298;2023-07-13T09:46:34;2.92;;;1.10;;
43620;SDS011;29213;50.770;7.298;2023-07-13T09:48:59;2.85;;;1.00;;
43620;SDS011;29213;50.770;7.298;2023-07-13T09:51:25;2.67;;;1.05;;
43620;SDS011;29213;50.770;7.298;2023-07-13T09:53:50;4.07;;;1.45;;
43620;SDS011;29213;50.770;7.298;2023-07-13T09:56:23;11.55;;;8.57;;
43620;SDS011;29213;50.770;7.298;2023-07-13T09:58:51;39.45;;;31.25;;
43620;SDS011;29213;50.770;7.298;2023-07-13T10:01:30;36.33;;;25.98;;
43620;SDS011;29213;50.770;7.298;2023-07-13T10:03:58;10.63;;;6.90;;
43620;SDS011;29213;50.770;7.298;2023-07-13T10:06:24;5.63;;;3.60;;
43620;SDS011;29213;50.770;7.298;2023-07-13T10:08:51;4.25;;;1.10;;
43620;SDS011;29213;50.770;7.298;2023-07-13T10:11:22;3.08;;;0.93;;
43620;SDS011;29213;50.770;7.298;2023-07-13T10:14:11;3.22;;;1.13;;
43620;SDS011;29213;50.770;7.298;2023-07-13T10:16:39;3.83;;;1.10;;
43620;SDS011;29213;50.770;7.298;2023-07-13T10:19:12;3.30;;;1.20;;
43620;SDS011;29213;50.770;7.298;2023-07-13T10:21:50;3.72;;;1.90;;
43620;SDS011;29213;50.770;7.298;2023-07-13T10:24:21;3.22;;;1.80;;
43620;SDS011;29213;50.770;7.298;2023-07-13T10:27:01;4.22;;;1.50;;
43620;SDS011;29213;50.770;7.298;2023-07-13T10:29:36;3.85;;;1.45;;
43620;SDS011;29213;50.770;7.298;2023-07-13T10:32:09;4.35;;;1.67;;
43620;SDS011;29213;50.770;7.298;2023-07-13T10:34:36;3.17;;;1.27;;
43620;SDS011;29213;50.770;7.298;2023-07-13T10:37:02;3.17;;;1.08;;
43620;SDS011;29213;50.770;7.298;2023-07-13T10:39:28;4.38;;;1.58;;
43620;SDS011;29213;50.770;7.298;2023-07-13T10:41:57;6.13;;;1.30;;
43620;SDS011;29213;50.770;7.298;2023-07-13T10:44:30;4.03;;;1.27;;
43620;SDS011;29213;50.770;7.298;2023-07-13T10:46:59;4.82;;;1.23;;
43620;SDS011;29213;50.770;7.298;2023-07-13T10:49:32;3.78;;;1.33;;
43620;SDS011;29213;50.770;7.298;2023-07-13T10:52:00;3.70;;;1.20;;
43620;SDS011;29213;50.770;7.298;2023-07-13T10:54:30;3.53;;;1.10;;
43620;SDS011;29213;50.770;7.298;2023-07-13T10:59:34;3.37;;;1.20;;
43620;SDS011;29213;50.770;7.298;2023-07-13T11:04:39;3.42;;;1.30;;
43620;SDS011;29213;50.770;7.298;2023-07-13T11:07:11;5.35;;;1.20;;
43620;SDS011;29213;50.770;7.298;2023-07-13T11:09:46;2.78;;;1.10;;
43620;SDS011;29213;50.770;7.298;2023-07-13T11:17:36;2.75;;;0.95;;
43620;SDS011;29213;50.770;7.298;2023-07-13T11:22:44;3.40;;;1.27;;
43620;SDS011;29213;50.770;7.298;2023-07-13T11:27:45;3.17;;;1.00;;
43620;SDS011;29213;50.770;7.298;2023-07-13T11:33:09;2.92;;;1.10;;
43620;SDS011;29213;50.770;7.298;2023-07-13T11:38:36;2.63;;;1.00;;
43620;SDS011;29213;50.770;7.298;2023-07-13T11:41:11;4.22;;;1.17;;
43620;SDS011;29213;50.770;7.298;2023-07-13T11:43:42;2.38;;;0.98;;
43620;SDS011;29213;50.770;7.298;2023-07-13T11:48:39;2.25;;;0.68;;
43620;SDS011;29213;50.770;7.298;2023-07-13T11:51:06;2.63;;;1.10;;
43620;SDS011;29213;50.770;7.298;2023-07-13T11:53:47;3.03;;;0.90;;
43620;SDS011;29213;50.770;7.298;2023-07-13T11:56:15;3.25;;;1.20;;
43620;SDS011;29213;50.770;7.298;2023-07-13T11:58:40;2.70;;;1.00;;
43620;SDS011;29213;50.770;7.298;2023-07-13T12:01:10;2.97;;;1.02;;
43620;SDS011;29213;50.770;7.298;2023-07-13T12:03:45;2.60;;;1.00;;
43620;SDS011;29213;50.770;7.298;2023-07-13T12:06:25;3.08;;;0.90;;
43620;SDS011;29213;50.770;7.298;2023-07-13T12:08:55;3.15;;;1.00;;
43620;SDS011;29213;50.770;7.298;2023-07-13T12:11:22;2.38;;;0.80;;
43620;SDS011;29213;50.770;7.298;2023-07-13T12:13:47;2.97;;;0.95;;
43620;SDS011;29213;50.770;7.298;2023-07-13T12:16:25;1.45;;;0.60;;
43620;SDS011;29213;50.770;7.298;2023-07-13T12:18:55;3.25;;;1.17;;
43620;SDS011;29213;50.770;7.298;2023-07-13T12:21:24;3.03;;;0.93;;
43620;SDS011;29213;50.770;7.298;2023-07-13T12:23:59;3.22;;;0.90;;
43620;SDS011;29213;50.770;7.298;2023-07-13T12:26:28;2.88;;;1.00;;
43620;SDS011;29213;50.770;7.298;2023-07-13T12:28:54;2.67;;;1.00;;
43620;SDS011;29213;50.770;7.298;2023-07-13T12:31:32;2.58;;;0.90;;
43620;SDS011;29213;50.770;7.298;2023-07-13T12:34:01;2.88;;;0.95;;
43620;SDS011;29213;50.770;7.298;2023-07-13T12:36:32;3.80;;;1.05;;
43620;SDS011;29213;50.770;7.298;2023-07-13T12:39:04;2.47;;;0.90;;
43620;SDS011;29213;50.770;7.298;2023-07-13T12:41:38;7.18;;;1.05;;
43620;SDS011;29213;50.770;7.298;2023-07-13T12:44:05;2.13;;;0.90;;
43620;SDS011;29213;50.770;7.298;2023-07-13T12:46:36;4.25;;;1.15;;
43620;SDS011;29213;50.770;7.298;2023-07-13T12:49:05;2.47;;;1.05;;
43620;SDS011;29213;50.770;7.298;2023-07-13T12:51:32;3.88;;;1.10;;
43620;SDS011;29213;50.770;7.298;2023-07-13T12:54:05;3.53;;;1.30;;
43620;SDS011;29213;50.770;7.298;2023-07-13T12:56:38;5.63;;;1.30;;
43620;SDS011;29213;50.770;7.298;2023-07-13T12:59:04;3.05;;;1.00;;
43620;SDS011;29213;50.770;7.298;2023-07-13T13:01:32;5.90;;;1.13;;
43620;SDS011;29213;50.770;7.298;2023-07-13T13:04:02;4.38;;;1.10;;
43620;SDS011;29213;50.770;7.298;2023-07-13T13:06:34;3.22;;;1.13;;
43620;SDS011;29213;50.770;7.298;2023-07-13T13:09:01;3.22;;;1.10;;
43620;SDS011;29213;50.770;7.298;2023-07-13T13:11:31;4.40;;;1.60;;
43620;SDS011;29213;50.770;7.298;2023-07-13T13:13:57;10.52;;;6.05;;
43620;SDS011;29213;50.770;7.298;2023-07-13T13:16:32;12.52;;;7.68;;
43620;SDS011;29213;50.770;7.298;2023-07-13T13:21:56;12.32;;;6.15;;
43620;SDS011;29213;50.770;7.298;2023-07-13T13:24:23;8.15;;;3.88;;
43620;SDS011;29213;50.770;7.298;2023-07-13T13:26:51;8.75;;;3.03;;
43620;SDS011;29213;50.770;7.298;2023-07-13T13:29:19;6.15;;;2.40;;
43620;SDS011;29213;50.770;7.298;2023-07-13T13:31:50;5.60;;;2.75;;
43620;SDS011;29213;50.770;7.298;2023-07-13T13:34:16;4.15;;;1.77;;
43620;SDS011;29213;50.770;7.298;2023-07-13T13:36:43;4.63;;;2.08;;
43620;SDS011;29213;50.770;7.298;2023-07-13T13:39:20;3.75;;;1.40;;
43620;SDS011;29213;50.770;7.298;2023-07-13T13:41:51;3.63;;;1.50;;
43620;SDS011;29213;50.770;7.298;2023-07-13T13:44:18;2.85;;;1.25;;
43620;SDS011;29213;50.770;7.298;2023-07-13T13:46:45;3.38;;;1.30;;
43620;SDS011;29213;50.770;7.298;2023-07-13T13:49:16;2.50;;;1.00;;
43620;SDS011;29213;50.770;7.298;2023-07-13T13:51:43;2.15;;;0.90;;
43620;SDS011;29213;50.770;7.298;2023-07-13T13:54:15;2.75;;;0.88;;
43620;SDS011;29213;50.770;7.298;2023-07-13T13:56:42;1.85;;;0.90;;
43620;SDS011;29213;50.770;7.298;2023-07-13T13:59:09;2.60;;;1.10;;
43620;SDS011;29213;50.770;7.298;2023-07-13T14:01:35;2.58;;;1.05;;
43620;SDS011;29213;50.770;7.298;2023-07-13T14:04:01;2.03;;;0.95;;
43620;SDS011;29213;50.770;7.298;2023-07-13T14:06:27;3.42;;;1.00;;
43620;SDS011;29213;50.770;7.298;2023-07-13T14:08:53;2.42;;;1.05;;
43620;SDS011;29213;50.770;7.298;2023-07-13T14:11:20;2.80;;;1.02;;
43620;SDS011;29213;50.770;7.298;2023-07-13T14:13:54;3.28;;;0.90;;
43620;SDS011;29213;50.770;7.298;2023-07-13T14:16:21;2.15;;;0.90;;
43620;SDS011;29213;50.770;7.298;2023-07-13T14:18:52;3.13;;;1.10;;
43620;SDS011;29213;50.770;7.298;2023-07-13T14:21:19;2.05;;;0.82;;
43620;SDS011;29213;50.770;7.298;2023-07-13T14:23:47;2.40;;;0.90;;
43620;SDS011;29213;50.770;7.298;2023-07-13T14:26:14;2.13;;;0.75;;
43620;SDS011;29213;50.770;7.298;2023-07-13T14:28:46;2.72;;;0.90;;
43620;SDS011;29213;50.770;7.298;2023-07-13T14:34:22;3.22;;;1.00;;
43620;SDS011;29213;50.770;7.298;2023-07-13T14:36:48;1.92;;;0.88;;
43620;SDS011;29213;50.770;7.298;2023-07-13T14:39:16;2.47;;;0.90;;
43620;SDS011;29213;50.770;7.298;2023-07-13T14:41:44;2.47;;;0.80;;
43620;SDS011;29213;50.770;7.298;2023-07-13T14:44:11;2.78;;;0.90;;
43620;SDS011;29213;50.770;7.298;2023-07-13T14:46:37;3.03;;;1.00;;
43620;SDS011;29213;50.770;7.298;2023-07-13T14:49:04;2.75;;;0.90;;
43620;SDS011;29213;50.770;7.298;2023-07-13T14:51:35;3.60;;;1.00;;
43620;SDS011;29213;50.770;7.298;2023-07-13T14:54:05;3.47;;;1.15;;
43620;SDS011;29213;50.770;7.298;2023-07-13T14:56:31;1.85;;;0.80;;
43620;SDS011;29213;50.770;7.298;2023-07-13T14:58:56;3.40;;;1.00;;
43620;SDS011;29213;50.770;7.298;2023-07-13T15:01:22;2.92;;;0.90;;
43620;SDS011;29213;50.770;7.298;2023-07-13T15:03:51;2.28;;;0.80;;
43620;SDS011;29213;50.770;7.298;2023-07-13T15:06:17;2.75;;;0.93;;
43620;SDS011;29213;50.770;7.298;2023-07-13T15:08:44;3.25;;;1.00;;
43620;SDS011;29213;50.770;7.298;2023-07-13T15:11:10;2.05;;;0.90;;
43620;SDS011;29213;50.770;7.298;2023-07-13T15:13:38;3.67;;;0.90;;
43620;SDS011;29213;50.770;7.298;2023-07-13T15:16:05;2.92;;;0.88;;
43620;SDS011;29213;50.770;7.298;2023-07-13T15:18:40;1.52;;;0.68;;
43620;SDS011;29213;50.770;7.298;2023-07-13T15:21:09;3.03;;;0.98;;
43620;SDS011;29213;50.770;7.298;2023-07-13T15:23:39;2.05;;;0.85;;
43620;SDS011;29213;50.770;7.298;2023-07-13T15:26:08;2.55;;;0.90;;
43620;SDS011;29213;50.770;7.298;2023-07-13T15:28:37;1.48;;;0.82;;
43620;SDS011;29213;50.770;7.298;2023-07-13T15:31:04;2.60;;;1.00;;
43620;SDS011;29213;50.770;7.298;2023-07-13T15:33:42;3.05;;;0.93;;
43620;SDS011;29213;50.770;7.298;2023-07-13T15:36:07;2.38;;;0.90;;
43620;SDS011;29213;50.770;7.298;2023-07-13T15:38:33;3.25;;;0.80;;
43620;SDS011;29213;50.770;7.298;2023-07-13T15:41:09;2.65;;;0.90;;
43620;SDS011;29213;50.770;7.298;2023-07-13T15:43:58;1.88;;;0.80;;